Terminal Aerodrome Forecast
Issued by NWS

Home | Current Version | Previous Version | Text Only | Print | Product List | Glossary On
Versions: 1 2 3 4 5 6 7 8 9 10 11 12 13 14 15 16 17 18 19 20
385
FTUS41 KBTV 110537
TAFRUT
TAF
KRUT 110537Z 1106/1206 29006KT P6SM VCSH OVC050
     FM111600 29009G15KT P6SM VCSH OVC040
     FM112300 30011G24KT P6SM BKN045
     FM120200 30009KT P6SM BKN045
     FM120400 29008KT P6SM SCT060
      AMD LTD TO CLD VIS AND WIND=

USA.gov is the U.S. government's official web portal to all federal, state and local government web resources and services.